createdAt,value
2019-05-11T00:00:49.371Z,100725.39
2019-05-11T00:03:22.841Z,100726.58
2019-05-11T00:05:54.235Z,100725.25
2019-05-11T00:08:25.654Z,100725.80
2019-05-11T00:10:56.945Z,100724.61
2019-05-11T00:13:28.353Z,100730.66
2019-05-11T00:15:59.695Z,100728.61
2019-05-11T00:18:34.600Z,100730.84
2019-05-11T00:21:05.142Z,100733.34
2019-05-11T00:23:36.384Z,100733.95
2019-05-11T00:26:08.816Z,100729.83
2019-05-11T00:28:40.275Z,100733.28
2019-05-11T00:31:11.789Z,100735.17
2019-05-11T00:33:43.177Z,100727.02
2019-05-11T00:36:14.620Z,100732.09
2019-05-11T00:38:46.013Z,100732.52
2019-05-11T00:41:17.423Z,100734.77
2019-05-11T00:43:48.869Z,100735.97
2019-05-11T00:46:20.273Z,100737.44
2019-05-11T00:48:51.774Z,100736.05
2019-05-11T00:51:23.325Z,100737.98
2019-05-11T00:53:54.805Z,100737.52
2019-05-11T00:56:26.280Z,100751.01
2019-05-11T00:58:57.671Z,100750.23
2019-05-11T01:01:29.234Z,100751.43
2019-05-11T01:04:00.741Z,100745.97
2019-05-11T01:06:32.319Z,100745.42
2019-05-11T01:09:04.712Z,100740.64
2019-05-11T01:11:37.212Z,100743.31
2019-05-11T01:14:08.735Z,100742.37
2019-05-11T01:16:40.287Z,100744.90
2019-05-11T01:19:11.819Z,100744.81
2019-05-11T01:21:44.226Z,100750.95
2019-05-11T01:24:15.595Z,100754.98
2019-05-11T01:26:47.496Z,100754.55
2019-05-11T01:29:18.885Z,100753.83
2019-05-11T01:31:50.323Z,100751.59
2019-05-11T01:34:21.839Z,100753.36
2019-05-11T01:36:53.318Z,100757.74
2019-05-11T01:39:24.760Z,100753.80
2019-05-11T01:41:56.271Z,100753.02
2019-05-11T01:44:27.712Z,100761.12
2019-05-11T01:46:59.205Z,100751.30
2019-05-11T01:49:31.782Z,100751.81
2019-05-11T01:52:03.306Z,100757.66
2019-05-11T01:54:36.917Z,100758.20
2019-05-11T01:57:08.399Z,100758.45
2019-05-11T01:59:39.979Z,100756.39
2019-05-11T02:02:11.550Z,100753.94
2019-05-11T02:04:43.101Z,100754.06
2019-05-11T02:07:16.903Z,100760.16
2019-05-11T02:09:48.396Z,100763.69
2019-05-11T02:12:20.039Z,100758.83
2019-05-11T02:14:51.529Z,100762.43
2019-05-11T02:17:26.079Z,100761.97
2019-05-11T02:19:57.678Z,100757.50
2019-05-11T02:22:29.239Z,100761.84
2019-05-11T02:25:01.899Z,100758.44
2019-05-11T02:27:33.402Z,100754.37
2019-05-11T02:30:07.253Z,100754.98
2019-05-11T02:32:38.777Z,100764.58
2019-05-11T02:35:10.412Z,100772.85
2019-05-11T02:37:41.930Z,100768.73
2019-05-11T02:40:14.330Z,100769.70
2019-05-11T02:42:45.856Z,100773.94
2019-05-11T02:45:20.200Z,100777.80
2019-05-11T02:47:51.728Z,100780.14
2019-05-11T02:50:23.260Z,100772.16
2019-05-11T02:52:54.801Z,100765.50
2019-05-11T02:55:26.309Z,100775.95
2019-05-11T02:57:58.837Z,100774.77
2019-05-11T03:00:38.858Z,100785.59
2019-05-11T03:03:10.406Z,100779.30
2019-05-11T03:05:41.935Z,100788.48
2019-05-11T03:08:13.457Z,100788.44
2019-05-11T03:10:45.001Z,100791.11
2019-05-11T03:13:16.598Z,100789.61
2019-05-11T03:15:48.274Z,100793.34
2019-05-11T03:18:19.759Z,100795.10
2019-05-11T03:20:51.265Z,100789.30
2019-05-11T03:23:22.824Z,100792.44
2019-05-11T03:25:55.357Z,100794.80
2019-05-11T03:28:27.873Z,100799.74
2019-05-11T03:31:00.306Z,100804.55
2019-05-11T03:33:31.756Z,100803.86
2019-05-11T03:36:03.235Z,100806.53
2019-05-11T03:38:35.736Z,100805.41
2019-05-11T03:41:07.217Z,100808.34
2019-05-11T03:43:40.306Z,100817.04
2019-05-11T03:46:12.901Z,100817.59
2019-05-11T03:48:44.433Z,100815.61
2019-05-11T03:51:15.952Z,100812.66
2019-05-11T03:53:48.498Z,100818.72
2019-05-11T03:56:19.924Z,100818.40
2019-05-11T03:58:52.446Z,100817.69
2019-05-11T04:01:23.930Z,100811.45
2019-05-11T04:03:55.469Z,100815.38
2019-05-11T04:06:27.113Z,100814.80
2019-05-11T04:08:58.673Z,100811.16
2019-05-11T04:11:30.078Z,100819.15
2019-05-11T04:14:01.566Z,100821.02
2019-05-11T04:16:32.958Z,100816.11
2019-05-11T04:19:04.380Z,100823.78
2019-05-11T04:21:35.926Z,100818.65
2019-05-11T04:24:07.347Z,100824.66
2019-05-11T04:26:38.780Z,100826.58
2019-05-11T04:29:10.212Z,100823.37
2019-05-11T04:31:41.626Z,100834.70
2019-05-11T04:34:15.064Z,100831.14
2019-05-11T04:36:46.492Z,100831.31
2019-05-11T04:39:17.940Z,100825.38
2019-05-11T04:41:49.371Z,100828.12
2019-05-11T04:44:20.895Z,100828.72
2019-05-11T04:46:52.301Z,100830.70
2019-05-11T04:49:23.706Z,100830.76
2019-05-11T04:51:55.276Z,100831.13
2019-05-11T04:54:26.671Z,100827.78
2019-05-11T04:56:58.226Z,100830.39
2019-05-11T04:59:29.719Z,100838.92
2019-05-11T05:02:01.123Z,100838.00
2019-05-11T05:04:32.531Z,100838.27
2019-05-11T05:07:05.432Z,100841.73
2019-05-11T05:09:42.509Z,100847.55
2019-05-11T05:12:14.139Z,100850.41
2019-05-11T05:14:43.855Z,100857.28
2019-05-11T05:17:15.365Z,100855.67
2019-05-11T05:19:46.955Z,100856.30
2019-05-11T05:22:18.457Z,100863.64
2019-05-11T05:24:50.020Z,100867.47
2019-05-11T05:27:21.526Z,100865.91
2019-05-11T05:29:53.004Z,100867.02
2019-05-11T05:32:24.520Z,100883.08
2019-05-11T05:34:55.958Z,100877.59
2019-05-11T05:37:28.448Z,100879.81
2019-05-11T05:39:59.971Z,100885.94
2019-05-11T05:42:31.528Z,100881.63
2019-05-11T05:45:05.344Z,100892.81
2019-05-11T05:47:37.898Z,100890.28
2019-05-11T05:50:09.558Z,100888.34
2019-05-11T05:52:42.211Z,100895.33
2019-05-11T05:55:13.850Z,100907.81
2019-05-11T05:57:45.377Z,100899.95
2019-05-11T06:00:17.670Z,100897.03
2019-05-11T06:02:49.139Z,100907.13
2019-05-11T06:05:20.687Z,100903.77
2019-05-11T06:07:52.211Z,100907.32
2019-05-11T06:10:27.382Z,100903.47
2019-05-11T06:12:58.883Z,100898.47
2019-05-11T06:15:30.460Z,100912.89
2019-05-11T06:18:02.982Z,100908.07
2019-05-11T06:20:35.594Z,100916.93
2019-05-11T06:23:07.105Z,100902.51
2019-05-11T06:25:39.585Z,100905.72
2019-05-11T06:28:12.167Z,100910.91
2019-05-11T06:30:43.739Z,100910.14
2019-05-11T06:33:15.267Z,100914.36
2019-05-11T06:35:49.686Z,100921.51
2019-05-11T06:38:29.674Z,100923.71
2019-05-11T06:41:05.814Z,100917.13
2019-05-11T06:43:39.965Z,100917.59
2019-05-11T06:46:13.927Z,100921.52
2019-05-11T06:48:55.048Z,100913.78
2019-05-11T06:51:33.454Z,100916.75
2019-05-11T06:54:09.989Z,100917.30
2019-05-11T06:56:45.899Z,100915.84
2019-05-11T06:59:19.851Z,100914.13
2019-05-11T07:01:55.964Z,100930.11
2019-05-11T07:04:35.035Z,100923.71
2019-05-11T07:07:07.931Z,100919.66
2019-05-11T07:09:39.326Z,100916.67
2019-05-11T07:12:11.055Z,100913.88
2019-05-11T07:14:42.600Z,100921.14
2019-05-11T07:17:14.969Z,100919.27
2019-05-11T07:19:47.810Z,100936.16
2019-05-11T07:22:19.161Z,100918.05
2019-05-11T07:24:50.585Z,100923.97
2019-05-11T07:27:22.052Z,100919.90
2019-05-11T07:29:54.508Z,100927.39
2019-05-11T07:32:29.205Z,100918.55
2019-05-11T07:35:00.494Z,100921.52
2019-05-11T07:37:32.961Z,100923.64
2019-05-11T07:40:05.513Z,100915.36
2019-05-11T07:42:38.285Z,100924.90
2019-05-11T07:45:11.137Z,100927.75
2019-05-11T07:47:43.727Z,100933.78
2019-05-11T07:50:17.913Z,100937.12
2019-05-11T07:52:48.582Z,100937.07
2019-05-11T07:55:21.005Z,100933.34
2019-05-11T07:57:52.468Z,100937.39
2019-05-11T08:00:23.910Z,100936.74
2019-05-11T08:02:55.310Z,100932.39
2019-05-11T08:05:28.504Z,100944.48
2019-05-11T08:08:00.078Z,100934.50
2019-05-11T08:10:31.567Z,100944.92
2019-05-11T08:13:04.096Z,100944.31
2019-05-11T08:15:35.556Z,100949.19
2019-05-11T08:18:08.498Z,100945.19
2019-05-11T08:20:40.491Z,100941.75
2019-05-11T08:23:12.898Z,100946.83
2019-05-11T08:25:45.334Z,100939.68
2019-05-11T08:28:18.428Z,100935.76
2019-05-11T08:30:51.021Z,100945.92
2019-05-11T08:33:22.546Z,100942.59
2019-05-11T08:35:54.047Z,100937.56
2019-05-11T08:38:25.479Z,100940.75
2019-05-11T08:40:59.078Z,100924.81
2019-05-11T08:43:30.097Z,100929.05
2019-05-11T08:46:01.656Z,100932.59
2019-05-11T08:48:33.217Z,100934.41
2019-05-11T08:51:04.652Z,100934.15
2019-05-11T08:53:38.550Z,100946.20
2019-05-11T08:56:13.026Z,100946.28
2019-05-11T08:58:42.462Z,100956.80
2019-05-11T09:01:14.013Z,100958.58
2019-05-11T09:03:47.672Z,100946.28
2019-05-11T09:06:18.506Z,100946.06
2019-05-11T09:08:49.986Z,100957.94
2019-05-11T09:11:21.407Z,100955.78
2019-05-11T09:13:52.961Z,100966.02
2019-05-11T09:16:24.365Z,100961.86
2019-05-11T09:18:57.979Z,100960.27
2019-05-11T09:21:30.431Z,100957.01
2019-05-11T09:24:04.035Z,100959.40
2019-05-11T09:26:39.668Z,100976.05
2019-05-11T09:29:12.982Z,100976.25
2019-05-11T09:31:44.500Z,100961.69
2019-05-11T09:34:17.559Z,100972.54
2019-05-11T09:36:50.121Z,100975.69
2019-05-11T09:39:21.588Z,100969.16
2019-05-11T09:41:53.109Z,100972.41
2019-05-11T09:44:24.626Z,100973.38
2019-05-11T09:46:59.778Z,100973.00
2019-05-11T09:49:43.975Z,100973.77
2019-05-11T09:52:02.382Z,100982.02
2019-05-11T09:54:33.809Z,100984.32
2019-05-11T09:57:08.363Z,100985.48
2019-05-11T09:59:39.338Z,100986.04
2019-05-11T10:02:10.756Z,100978.56
2019-05-11T10:04:42.262Z,100985.57
2019-05-11T10:07:14.828Z,100992.58
2019-05-11T10:09:48.037Z,100987.77
2019-05-11T10:12:20.518Z,100992.83
2019-05-11T10:14:52.155Z,100983.47
2019-05-11T10:17:23.605Z,100983.27
2019-05-11T10:19:55.059Z,100984.52
2019-05-11T10:22:27.928Z,100985.87
2019-05-11T10:24:59.516Z,100980.78
2019-05-11T10:27:30.981Z,100980.49
2019-05-11T10:30:02.510Z,100983.47
2019-05-11T10:32:34.301Z,100986.93
2019-05-11T10:35:08.034Z,100984.77
2019-05-11T10:37:40.738Z,100988.71
2019-05-11T10:40:12.481Z,100985.54
2019-05-11T10:42:43.972Z,100997.95
2019-05-11T10:45:17.833Z,100993.24
2019-05-11T10:47:49.154Z,100998.20
2019-05-11T10:50:21.002Z,100996.27
2019-05-11T10:52:53.532Z,100996.53
2019-05-11T10:55:25.105Z,100994.94
2019-05-11T10:57:58.087Z,101001.66
2019-05-11T11:00:30.663Z,100993.69
2019-05-11T11:03:02.316Z,100997.05
2019-05-11T11:05:35.400Z,101001.23
2019-05-11T11:08:08.354Z,101001.34
2019-05-11T11:10:41.455Z,100991.96
2019-05-11T11:13:13.060Z,100990.81
2019-05-11T11:15:48.501Z,100997.35
2019-05-11T11:18:19.771Z,101005.44
2019-05-11T11:20:52.371Z,101003.92
2019-05-11T11:23:24.985Z,101003.44
2019-05-11T11:25:58.400Z,100999.84
2019-05-11T11:28:31.968Z,101000.66
2019-05-11T11:31:04.624Z,101013.76
2019-05-11T11:33:38.953Z,101011.38
2019-05-11T11:36:14.590Z,101013.33
2019-05-11T11:38:47.841Z,101011.81
2019-05-11T11:41:19.716Z,101009.93
2019-05-11T11:43:52.212Z,101014.91
2019-05-11T11:46:23.716Z,101012.89
2019-05-11T11:48:55.261Z,101012.81
2019-05-11T11:51:28.610Z,101021.57
2019-05-11T11:54:01.430Z,101021.83
2019-05-11T11:56:33.051Z,101032.79
2019-05-11T11:59:04.493Z,101025.46
2019-05-11T12:01:38.528Z,101026.49
2019-05-11T12:04:09.448Z,101023.45
2019-05-11T12:06:42.073Z,101030.63
2019-05-11T12:09:13.679Z,101029.77
2019-05-11T12:11:48.672Z,101022.69
2019-05-11T12:14:20.578Z,101036.31
2019-05-11T12:17:03.972Z,101034.85
2019-05-11T12:19:27.716Z,101036.50
2019-05-11T12:21:58.662Z,101046.63
2019-05-11T12:24:30.207Z,101060.14
2019-05-11T12:27:01.766Z,101056.59
2019-05-11T12:29:33.350Z,101062.97
2019-05-11T12:32:08.195Z,101053.17
2019-05-11T12:34:39.943Z,101064.91
2019-05-11T12:37:11.485Z,101055.00
2019-05-11T12:39:43.007Z,101056.58
2019-05-11T12:42:14.624Z,101055.81
2019-05-11T12:44:48.164Z,101043.23
2019-05-11T12:47:25.021Z,101058.30
2019-05-11T12:49:54.819Z,101060.65
2019-05-11T12:52:27.997Z,101063.91
2019-05-11T12:54:59.761Z,101060.65
2019-05-11T12:57:32.267Z,101064.30
2019-05-11T13:00:08.836Z,101072.01
2019-05-11T13:02:40.559Z,101076.55
2019-05-11T13:05:13.302Z,101075.76
2019-05-11T13:07:45.065Z,101079.53
2019-05-11T13:10:17.880Z,101087.19
2019-05-11T13:12:49.609Z,101082.08
2019-05-11T13:15:21.320Z,101082.70
2019-05-11T13:17:54.012Z,101080.83
2019-05-11T13:20:25.603Z,101083.18
2019-05-11T13:22:58.702Z,101086.05
2019-05-11T13:25:30.564Z,101078.81
2019-05-11T13:28:02.336Z,101083.92
2019-05-11T13:30:33.864Z,101079.41
2019-05-11T13:33:08.318Z,101079.86
2019-05-11T13:35:39.150Z,101084.11
2019-05-11T13:38:10.702Z,101079.03
2019-05-11T13:40:43.283Z,101087.40
2019-05-11T13:43:14.829Z,101084.39
2019-05-11T13:45:47.927Z,101084.80
2019-05-11T13:48:19.681Z,101088.17
2019-05-11T13:50:51.381Z,101088.73
2019-05-11T13:53:23.971Z,101087.72
2019-05-11T13:55:58.692Z,101092.73
2019-05-11T13:58:29.938Z,101091.97
2019-05-11T14:01:01.684Z,101096.75
2019-05-11T14:03:33.247Z,101094.72
2019-05-11T14:06:04.955Z,101086.68
2019-05-11T14:08:39.274Z,101090.94
2019-05-11T14:11:11.869Z,101083.39
2019-05-11T14:13:44.538Z,101086.39
2019-05-11T14:16:17.902Z,101085.66
2019-05-11T14:18:49.367Z,101082.75
2019-05-11T14:21:20.900Z,101091.75
2019-05-11T14:23:53.716Z,101087.95
2019-05-11T14:26:25.408Z,101095.70
2019-05-11T14:28:59.636Z,101098.48
2019-05-11T14:31:31.612Z,101105.11
2019-05-11T14:34:03.223Z,101102.72
2019-05-11T14:36:34.726Z,101106.38
2019-05-11T14:39:08.461Z,101106.20
2019-05-11T14:41:40.352Z,101105.84
2019-05-11T14:44:11.876Z,101103.00
2019-05-11T14:46:44.504Z,101105.56
2019-05-11T14:49:18.201Z,101109.64
2019-05-11T14:51:49.398Z,101103.97
2019-05-11T14:54:21.009Z,101106.58
2019-05-11T14:56:52.622Z,101110.08
2019-05-11T14:59:24.196Z,101106.33
2019-05-11T15:01:58.371Z,101107.19
2019-05-11T15:04:30.112Z,101109.64
2019-05-11T15:07:01.659Z,101105.00
2019-05-11T15:09:33.169Z,101106.45
2019-05-11T15:12:04.681Z,101107.47
2019-05-11T15:14:37.807Z,101103.06
2019-05-11T15:17:09.614Z,101105.63
2019-05-11T15:19:41.208Z,101104.19
2019-05-11T15:22:12.844Z,101103.37
2019-05-11T15:24:44.422Z,101100.84
2019-05-11T15:27:18.400Z,101106.91
2019-05-11T15:29:49.172Z,101107.13
2019-05-11T15:32:20.758Z,101107.84
2019-05-11T15:34:53.308Z,101107.63
2019-05-11T15:37:24.761Z,101109.14
2019-05-11T15:39:58.929Z,101105.23
2019-05-11T15:42:30.646Z,101113.35
2019-05-11T15:45:02.412Z,101111.41
2019-05-11T15:47:34.223Z,101116.07
2019-05-11T15:50:09.598Z,101117.20
2019-05-11T15:52:41.070Z,101119.50
2019-05-11T15:55:12.994Z,101117.89
2019-05-11T15:57:44.500Z,101131.34
2019-05-11T16:00:16.643Z,101131.56
2019-05-11T16:02:49.061Z,101131.66
2019-05-11T16:05:20.965Z,101137.60
2019-05-11T16:07:53.602Z,101137.06
2019-05-11T16:10:25.067Z,101140.66
2019-05-11T16:12:58.594Z,101138.87
2019-05-11T16:15:30.941Z,101139.41
2019-05-11T16:18:02.376Z,101135.34
2019-05-11T16:20:33.884Z,101147.46
2019-05-11T16:23:05.426Z,101143.13
2019-05-11T16:25:38.300Z,101154.17
2019-05-11T16:28:11.213Z,101152.13
2019-05-11T16:30:43.798Z,101144.78
2019-05-11T16:33:15.320Z,101141.22
2019-05-11T16:35:48.944Z,101145.58
2019-05-11T16:38:20.108Z,101152.08
2019-05-11T16:40:51.739Z,101150.74
2019-05-11T16:43:23.257Z,101157.43
2019-05-11T16:45:54.806Z,101151.76
2019-05-11T16:48:27.703Z,101155.00
2019-05-11T16:50:59.622Z,101158.00
2019-05-11T16:53:31.168Z,101169.08
2019-05-11T16:56:02.678Z,101163.97
2019-05-11T16:58:34.226Z,101170.95
2019-05-11T17:01:08.405Z,101174.52
2019-05-11T17:03:39.067Z,101170.23
2019-05-11T17:06:10.613Z,101175.48
2019-05-11T17:08:42.136Z,101166.70
2019-05-11T17:11:14.735Z,101170.32
2019-05-11T17:13:48.259Z,101170.17
2019-05-11T17:16:19.478Z,101173.14
2019-05-11T17:18:51.012Z,101175.95
2019-05-11T17:21:24.626Z,101173.77
2019-05-11T17:23:57.955Z,101178.78
2019-05-11T17:26:29.577Z,101185.27
2019-05-11T17:29:01.262Z,101186.59
2019-05-11T17:31:32.791Z,101187.16
2019-05-11T17:34:04.420Z,101189.38
2019-05-11T17:36:35.969Z,101199.06
2019-05-11T17:39:08.163Z,101198.63
2019-05-11T17:41:39.700Z,101196.76
2019-05-11T17:44:12.170Z,101204.00
2019-05-11T17:46:43.682Z,101205.48
2019-05-11T17:51:42.980Z,101210.82
2019-05-11T17:54:14.492Z,101216.98
2019-05-11T17:56:48.218Z,101216.17
2019-05-11T17:59:19.692Z,101223.80
2019-05-11T18:01:52.288Z,101223.98
2019-05-11T18:04:23.815Z,101234.63
2019-05-11T18:06:55.329Z,101227.27
2019-05-11T18:09:26.893Z,101222.67
2019-05-11T18:11:58.647Z,101226.34
2019-05-11T18:14:31.123Z,101230.16
2019-05-11T18:17:02.844Z,101237.03
2019-05-11T18:19:34.382Z,101236.11
2019-05-11T18:22:08.303Z,101238.20
2019-05-11T18:24:39.999Z,101241.85
2019-05-11T18:27:11.453Z,101240.78
2019-05-11T18:29:42.866Z,101245.61
2019-05-11T18:32:14.373Z,101247.46
2019-05-11T18:34:48.390Z,101248.16
2019-05-11T18:37:20.343Z,101247.34
2019-05-11T18:39:52.847Z,101248.42
2019-05-11T18:42:24.560Z,101253.63
2019-05-11T18:44:58.051Z,101259.76
2019-05-11T18:47:29.984Z,101256.30
2019-05-11T18:50:01.877Z,101260.31
2019-05-11T18:52:33.401Z,101260.44
2019-05-11T18:55:08.179Z,101265.27
2019-05-11T18:57:39.218Z,101264.92
2019-05-11T19:00:12.097Z,101264.57
2019-05-11T19:02:45.722Z,101268.19
2019-05-11T19:05:18.157Z,101265.39
2019-05-11T19:07:51.419Z,101266.00
2019-05-11T19:10:22.985Z,101264.92
2019-05-11T19:12:54.421Z,101264.02
2019-05-11T19:15:25.922Z,101266.48
2019-05-11T19:17:58.055Z,101269.35
2019-05-11T19:20:44.475Z,101264.41
2019-05-11T19:23:04.021Z,101269.15
2019-05-11T19:25:37.574Z,101266.95
2019-05-11T19:28:10.244Z,101263.07
2019-05-11T19:30:41.797Z,101267.86
2019-05-11T19:33:13.334Z,101266.73
2019-05-11T19:35:44.779Z,101271.08
2019-05-11T19:38:16.224Z,101278.27
2019-05-11T19:40:48.382Z,101277.28
2019-05-11T19:43:20.080Z,101281.55
2019-05-11T19:45:51.504Z,101290.72
2019-05-11T19:48:23.014Z,101284.95
2019-05-11T19:51:06.771Z,101289.63
2019-05-11T19:53:28.882Z,101290.55
2019-05-11T19:56:00.376Z,101287.48
2019-05-11T19:58:31.887Z,101292.90
2019-05-11T20:01:03.373Z,101289.28
2019-05-11T20:03:34.986Z,101295.45
2019-05-11T20:06:08.804Z,101295.48
2019-05-11T20:08:39.770Z,101290.01
2019-05-11T20:11:11.307Z,101299.74
2019-05-11T20:13:42.819Z,101298.03
2019-05-11T20:16:14.328Z,101295.09
2019-05-11T20:18:45.838Z,101294.05
2019-05-11T20:21:22.615Z,101298.42
2019-05-11T20:23:50.588Z,101293.82
2019-05-11T20:26:22.123Z,101300.24
2019-05-11T20:28:53.630Z,101300.12
2019-05-11T20:31:27.584Z,101298.17
2019-05-11T20:33:58.512Z,101297.83
2019-05-11T20:36:30.039Z,101302.92
2019-05-11T20:39:01.550Z,101305.02
2019-05-11T20:41:34.405Z,101306.36
2019-05-11T20:44:06.032Z,101309.59
2019-05-11T20:46:38.354Z,101310.25
2019-05-11T20:49:10.128Z,101313.73
2019-05-11T20:51:41.670Z,101312.72
2019-05-11T20:54:13.202Z,101307.05
2019-05-11T20:56:44.723Z,101306.48
2019-05-11T20:59:18.165Z,101303.86
2019-05-11T21:01:49.467Z,101303.17
2019-05-11T21:04:20.968Z,101304.31
2019-05-11T21:06:53.535Z,101313.56
2019-05-11T21:09:25.033Z,101310.98
2019-05-11T21:11:58.887Z,101321.80
2019-05-11T21:14:29.692Z,101316.45
2019-05-11T21:17:01.219Z,101322.52
2019-05-11T21:19:32.743Z,101321.89
2019-05-11T21:22:04.344Z,101321.37
2019-05-11T21:24:35.855Z,101329.32
2019-05-11T21:27:07.353Z,101330.50
2019-05-11T21:29:38.893Z,101329.36
2019-05-11T21:32:10.428Z,101330.89
2019-05-11T21:34:41.890Z,101328.38
2019-05-11T21:37:13.386Z,101328.30
2019-05-11T21:39:44.821Z,101322.42
2019-05-11T21:42:18.149Z,101321.86
2019-05-11T21:44:49.811Z,101326.55
2019-05-11T21:47:21.339Z,101328.37
2019-05-11T21:49:52.854Z,101329.42
2019-05-11T21:52:24.404Z,101329.53
2019-05-11T21:54:58.189Z,101333.52
2019-05-11T21:57:29.170Z,101328.98
2019-05-11T22:00:00.792Z,101337.76
2019-05-11T22:02:32.409Z,101329.53
2019-05-11T22:05:04.779Z,101328.41
2019-05-11T22:07:38.738Z,101332.17
2019-05-11T22:10:10.408Z,101326.73
2019-05-11T22:12:42.069Z,101329.86
2019-05-11T22:15:13.792Z,101327.98
2019-05-11T22:17:45.290Z,101323.20
2019-05-11T22:20:18.372Z,101326.84
2019-05-11T22:22:50.088Z,101326.84
2019-05-11T22:25:21.604Z,101332.98
2019-05-11T22:27:53.047Z,101329.65
2019-05-11T22:30:24.569Z,101332.94
2019-05-11T22:32:58.129Z,101335.43
2019-05-11T22:35:29.462Z,101332.34
2019-05-11T22:38:01.923Z,101330.80
2019-05-11T22:40:33.884Z,101335.20
2019-05-11T22:43:06.034Z,101329.47
2019-05-11T22:45:38.370Z,101332.34
2019-05-11T22:48:11.039Z,101329.68
2019-05-11T22:50:43.776Z,101331.30
2019-05-11T22:53:15.462Z,101334.83
2019-05-11T22:55:48.534Z,101332.73
2019-05-11T22:58:20.072Z,101327.15
2019-05-11T23:00:52.556Z,101334.02
2019-05-11T23:03:23.986Z,101335.69
2019-05-11T23:05:58.166Z,101333.83
2019-05-11T23:08:29.825Z,101327.73
2019-05-11T23:11:01.544Z,101326.97
2019-05-11T23:13:33.069Z,101326.61
2019-05-11T23:16:04.694Z,101332.50
2019-05-11T23:18:38.847Z,101328.21
2019-05-11T23:21:09.419Z,101323.72
2019-05-11T23:23:40.959Z,101323.39
2019-05-11T23:26:12.352Z,101320.42
2019-05-11T23:28:43.850Z,101326.39
2019-05-11T23:31:15.362Z,101329.65
2019-05-11T23:33:46.860Z,101330.38
2019-05-11T23:36:18.372Z,101331.73
2019-05-11T23:38:49.818Z,101334.96
2019-05-11T23:41:24.511Z,101344.58
2019-05-11T23:43:54.574Z,101341.80
2019-05-11T23:46:28.210Z,101338.86
2019-05-11T23:48:59.267Z,101337.06
2019-05-11T23:51:30.758Z,101332.30
2019-05-11T23:54:02.312Z,101340.72
2019-05-11T23:56:33.847Z,101342.17
2019-05-11T23:59:05.356Z,101341.50
